sensor_id;sensor_type;location;lat;lon;timestamp;temperature;humidity
13470;DHT22;6807;48.682;9.032;2022-08-03T00:01:02;16.80;99.90
13470;DHT22;6807;48.682;9.032;2022-08-03T00:03:29;16.80;99.90
13470;DHT22;6807;48.682;9.032;2022-08-03T00:05:56;16.80;99.90
13470;DHT22;6807;48.682;9.032;2022-08-03T00:08:25;16.70;99.90
13470;DHT22;6807;48.682;9.032;2022-08-03T00:10:51;16.60;99.90
13470;DHT22;6807;48.682;9.032;2022-08-03T00:13:18;16.70;99.90
13470;DHT22;6807;48.682;9.032;2022-08-03T00:15:45;16.70;99.90
13470;DHT22;6807;48.682;9.032;2022-08-03T00:18:12;16.70;99.90
13470;DHT22;6807;48.682;9.032;2022-08-03T00:20:39;16.60;99.90
13470;DHT22;6807;48.682;9.032;2022-08-03T00:23:05;16.60;99.90
13470;DHT22;6807;48.682;9.032;2022-08-03T00:25:34;16.60;99.90
13470;DHT22;6807;48.682;9.032;2022-08-03T00:28:02;16.50;99.90
13470;DHT22;6807;48.682;9.032;2022-08-03T00:30:30;16.50;99.90
13470;DHT22;6807;48.682;9.032;2022-08-03T00:32:57;16.50;99.90
13470;DHT22;6807;48.682;9.032;2022-08-03T00:35:24;16.50;99.90
13470;DHT22;6807;48.682;9.032;2022-08-03T00:37:51;16.50;99.90
13470;DHT22;6807;48.682;9.032;2022-08-03T00:40:19;16.60;99.90
13470;DHT22;6807;48.682;9.032;2022-08-03T00:42:50;16.40;99.90
13470;DHT22;6807;48.682;9.032;2022-08-03T00:45:19;16.40;99.90
13470;DHT22;6807;48.682;9.032;2022-08-03T00:47:46;16.30;99.90
13470;DHT22;6807;48.682;9.032;2022-08-03T00:50:13;16.40;99.90
13470;DHT22;6807;48.682;9.032;2022-08-03T00:52:40;16.30;99.90
13470;DHT22;6807;48.682;9.032;2022-08-03T00:55:08;16.30;99.90
13470;DHT22;6807;48.682;9.032;2022-08-03T00:57:35;16.30;99.90
13470;DHT22;6807;48.682;9.032;2022-08-03T01:00:06;16.30;99.90
13470;DHT22;6807;48.682;9.032;2022-08-03T01:02:33;16.30;99.90
13470;DHT22;6807;48.682;9.032;2022-08-03T01:05:00;16.30;99.90
13470;DHT22;6807;48.682;9.032;2022-08-03T01:07:36;16.30;99.90
13470;DHT22;6807;48.682;9.032;2022-08-03T01:10:16;16.30;99.90
13470;DHT22;6807;48.682;9.032;2022-08-03T01:12:51;16.30;99.90
13470;DHT22;6807;48.682;9.032;2022-08-03T01:15:26;16.30;99.90
13470;DHT22;6807;48.682;9.032;2022-08-03T01:17:58;16.20;99.90
13470;DHT22;6807;48.682;9.032;2022-08-03T01:20:31;16.20;99.90
13470;DHT22;6807;48.682;9.032;2022-08-03T01:26:35;16.10;99.90
13470;DHT22;6807;48.682;9.032;2022-08-03T01:29:14;16.10;99.90
13470;DHT22;6807;48.682;9.032;2022-08-03T01:31:52;16.10;99.90
13470;DHT22;6807;48.682;9.032;2022-08-03T01:34:27;16.10;99.90
13470;DHT22;6807;48.682;9.032;2022-08-03T01:36:58;16.00;99.90
13470;DHT22;6807;48.682;9.032;2022-08-03T01:39:31;16.00;99.90
13470;DHT22;6807;48.682;9.032;2022-08-03T01:42:00;16.10;99.90
13470;DHT22;6807;48.682;9.032;2022-08-03T01:44:34;16.00;99.90
13470;DHT22;6807;48.682;9.032;2022-08-03T01:47:04;16.00;99.90
13470;DHT22;6807;48.682;9.032;2022-08-03T01:49:52;16.00;99.90
13470;DHT22;6807;48.682;9.032;2022-08-03T01:52:19;15.90;99.90
13470;DHT22;6807;48.682;9.032;2022-08-03T01:54:48;15.90;99.90
13470;DHT22;6807;48.682;9.032;2022-08-03T01:57:18;15.90;99.90
13470;DHT22;6807;48.682;9.032;2022-08-03T01:59:46;16.50;99.90
13470;DHT22;6807;48.682;9.032;2022-08-03T02:02:16;15.90;99.90
13470;DHT22;6807;48.682;9.032;2022-08-03T02:04:45;16.10;99.90
13470;DHT22;6807;48.682;9.032;2022-08-03T02:07:13;15.90;99.90
13470;DHT22;6807;48.682;9.032;2022-08-03T02:09:41;15.90;99.90
13470;DHT22;6807;48.682;9.032;2022-08-03T02:12:10;15.90;99.90
13470;DHT22;6807;48.682;9.032;2022-08-03T02:14:38;15.80;99.90
13470;DHT22;6807;48.682;9.032;2022-08-03T02:17:06;15.80;99.90
13470;DHT22;6807;48.682;9.032;2022-08-03T02:19:36;15.80;99.90
13470;DHT22;6807;48.682;9.032;2022-08-03T02:22:05;15.70;99.90
13470;DHT22;6807;48.682;9.032;2022-08-03T02:24:34;15.70;99.90
13470;DHT22;6807;48.682;9.032;2022-08-03T02:27:03;16.00;99.90
13470;DHT22;6807;48.682;9.032;2022-08-03T02:29:32;15.70;99.90
13470;DHT22;6807;48.682;9.032;2022-08-03T02:32:01;15.70;99.90
13470;DHT22;6807;48.682;9.032;2022-08-03T02:34:32;15.60;99.90
13470;DHT22;6807;48.682;9.032;2022-08-03T02:37:03;15.60;99.90
13470;DHT22;6807;48.682;9.032;2022-08-03T02:39:32;15.60;99.90
13470;DHT22;6807;48.682;9.032;2022-08-03T02:42:01;15.60;99.90
13470;DHT22;6807;48.682;9.032;2022-08-03T02:44:29;15.60;99.90
13470;DHT22;6807;48.682;9.032;2022-08-03T02:47:02;15.60;99.90
13470;DHT22;6807;48.682;9.032;2022-08-03T02:49:31;15.60;99.90
13470;DHT22;6807;48.682;9.032;2022-08-03T02:52:00;15.50;99.90
13470;DHT22;6807;48.682;9.032;2022-08-03T02:54:29;15.60;99.90
13470;DHT22;6807;48.682;9.032;2022-08-03T02:56:59;15.60;99.90
13470;DHT22;6807;48.682;9.032;2022-08-03T02:59:27;15.60;99.90
13470;DHT22;6807;48.682;9.032;2022-08-03T03:01:56;15.60;99.90
13470;DHT22;6807;48.682;9.032;2022-08-03T03:04:26;15.50;99.90
13470;DHT22;6807;48.682;9.032;2022-08-03T03:06:53;15.50;99.90
13470;DHT22;6807;48.682;9.032;2022-08-03T03:09:22;15.50;99.90
13470;DHT22;6807;48.682;9.032;2022-08-03T03:11:50;15.40;99.90
13470;DHT22;6807;48.682;9.032;2022-08-03T03:14:17;15.40;99.90
13470;DHT22;6807;48.682;9.032;2022-08-03T03:16:46;15.40;99.90
13470;DHT22;6807;48.682;9.032;2022-08-03T03:19:14;15.50;99.90
13470;DHT22;6807;48.682;9.032;2022-08-03T03:21:43;15.50;99.90
13470;DHT22;6807;48.682;9.032;2022-08-03T03:24:10;15.40;99.90
13470;DHT22;6807;48.682;9.032;2022-08-03T03:26:39;15.40;99.90
13470;DHT22;6807;48.682;9.032;2022-08-03T03:29:06;15.40;99.90
13470;DHT22;6807;48.682;9.032;2022-08-03T03:31:34;15.30;99.90
13470;DHT22;6807;48.682;9.032;2022-08-03T03:34:02;15.40;99.90
13470;DHT22;6807;48.682;9.032;2022-08-03T03:36:29;15.40;99.90
13470;DHT22;6807;48.682;9.032;2022-08-03T03:38:57;15.50;99.90
13470;DHT22;6807;48.682;9.032;2022-08-03T03:41:24;15.40;99.90
13470;DHT22;6807;48.682;9.032;2022-08-03T03:43:52;15.30;99.90
13470;DHT22;6807;48.682;9.032;2022-08-03T03:46:19;15.30;99.90
13470;DHT22;6807;48.682;9.032;2022-08-03T03:48:47;15.30;99.90
13470;DHT22;6807;48.682;9.032;2022-08-03T03:51:14;15.30;99.90
13470;DHT22;6807;48.682;9.032;2022-08-03T03:53:53;15.20;99.90
13470;DHT22;6807;48.682;9.032;2022-08-03T03:56:20;15.30;99.90
13470;DHT22;6807;48.682;9.032;2022-08-03T03:58:47;15.20;99.90
13470;DHT22;6807;48.682;9.032;2022-08-03T04:01:15;15.20;99.90
13470;DHT22;6807;48.682;9.032;2022-08-03T04:03:42;15.20;99.90
13470;DHT22;6807;48.682;9.032;2022-08-03T04:06:11;15.30;99.90
13470;DHT22;6807;48.682;9.032;2022-08-03T04:08:56;15.30;99.90
13470;DHT22;6807;48.682;9.032;2022-08-03T04:11:44;15.20;99.90
13470;DHT22;6807;48.682;9.032;2022-08-03T04:14:16;15.30;99.90
13470;DHT22;6807;48.682;9.032;2022-08-03T04:16:49;15.30;99.90
13470;DHT22;6807;48.682;9.032;2022-08-03T04:19:21;15.30;99.90
13470;DHT22;6807;48.682;9.032;2022-08-03T04:21:52;15.30;99.90
13470;DHT22;6807;48.682;9.032;2022-08-03T04:24:21;15.20;99.90
13470;DHT22;6807;48.682;9.032;2022-08-03T04:26:49;15.30;99.90
13470;DHT22;6807;48.682;9.032;2022-08-03T04:29:18;15.40;99.90
13470;DHT22;6807;48.682;9.032;2022-08-03T04:31:48;15.40;99.90
13470;DHT22;6807;48.682;9.032;2022-08-03T04:34:17;15.40;99.90
13470;DHT22;6807;48.682;9.032;2022-08-03T04:36:48;15.40;99.90
13470;DHT22;6807;48.682;9.032;2022-08-03T04:39:22;15.40;99.90
13470;DHT22;6807;48.682;9.032;2022-08-03T04:41:52;15.50;99.90
13470;DHT22;6807;48.682;9.032;2022-08-03T04:44:23;15.50;99.90
13470;DHT22;6807;48.682;9.032;2022-08-03T04:46:52;15.50;99.90
13470;DHT22;6807;48.682;9.032;2022-08-03T04:49:22;15.80;99.90
13470;DHT22;6807;48.682;9.032;2022-08-03T04:51:49;15.60;99.90
13470;DHT22;6807;48.682;9.032;2022-08-03T04:54:18;15.70;99.90
13470;DHT22;6807;48.682;9.032;2022-08-03T04:56:46;15.80;99.90
13470;DHT22;6807;48.682;9.032;2022-08-03T04:59:13;15.90;99.90
13470;DHT22;6807;48.682;9.032;2022-08-03T05:01:43;15.90;99.90
13470;DHT22;6807;48.682;9.032;2022-08-03T05:04:11;16.10;99.90
13470;DHT22;6807;48.682;9.032;2022-08-03T05:06:38;16.10;99.90
13470;DHT22;6807;48.682;9.032;2022-08-03T05:09:05;16.20;99.90
13470;DHT22;6807;48.682;9.032;2022-08-03T05:11:32;16.30;99.90
13470;DHT22;6807;48.682;9.032;2022-08-03T05:13:58;16.40;99.90
13470;DHT22;6807;48.682;9.032;2022-08-03T05:16:25;16.50;99.90
13470;DHT22;6807;48.682;9.032;2022-08-03T05:18:52;16.50;99.90
13470;DHT22;6807;48.682;9.032;2022-08-03T05:21:20;16.60;99.90
13470;DHT22;6807;48.682;9.032;2022-08-03T05:23:47;16.70;99.90
13470;DHT22;6807;48.682;9.032;2022-08-03T05:26:14;16.80;99.90
13470;DHT22;6807;48.682;9.032;2022-08-03T05:28:41;16.90;99.90
13470;DHT22;6807;48.682;9.032;2022-08-03T05:31:07;17.00;99.90
13470;DHT22;6807;48.682;9.032;2022-08-03T05:33:34;17.10;99.90
13470;DHT22;6807;48.682;9.032;2022-08-03T05:36:01;17.20;99.90
13470;DHT22;6807;48.682;9.032;2022-08-03T05:38:30;17.40;99.90
13470;DHT22;6807;48.682;9.032;2022-08-03T05:40:57;17.50;99.90
13470;DHT22;6807;48.682;9.032;2022-08-03T05:43:24;17.70;99.90
13470;DHT22;6807;48.682;9.032;2022-08-03T05:45:51;17.90;99.90
13470;DHT22;6807;48.682;9.032;2022-08-03T05:48:18;18.10;99.90
13470;DHT22;6807;48.682;9.032;2022-08-03T05:50:45;18.30;99.90
13470;DHT22;6807;48.682;9.032;2022-08-03T05:53:11;18.60;99.90
13470;DHT22;6807;48.682;9.032;2022-08-03T05:55:40;18.80;99.90
13470;DHT22;6807;48.682;9.032;2022-08-03T05:58:06;19.10;99.90
13470;DHT22;6807;48.682;9.032;2022-08-03T06:00:33;19.30;99.90
13470;DHT22;6807;48.682;9.032;2022-08-03T06:03:00;19.60;99.90
13470;DHT22;6807;48.682;9.032;2022-08-03T06:05:27;19.80;99.90
13470;DHT22;6807;48.682;9.032;2022-08-03T06:07:54;20.10;99.90
13470;DHT22;6807;48.682;9.032;2022-08-03T06:10:21;20.40;99.90
13470;DHT22;6807;48.682;9.032;2022-08-03T06:12:49;20.60;99.90
13470;DHT22;6807;48.682;9.032;2022-08-03T06:15:16;20.90;99.90
13470;DHT22;6807;48.682;9.032;2022-08-03T06:17:45;21.10;99.90
13470;DHT22;6807;48.682;9.032;2022-08-03T06:20:12;21.40;99.90
13470;DHT22;6807;48.682;9.032;2022-08-03T06:22:39;21.50;99.90
13470;DHT22;6807;48.682;9.032;2022-08-03T06:25:06;21.90;99.90
13470;DHT22;6807;48.682;9.032;2022-08-03T06:27:34;22.20;99.90
13470;DHT22;6807;48.682;9.032;2022-08-03T06:30:04;22.50;99.90
13470;DHT22;6807;48.682;9.032;2022-08-03T06:32:31;22.70;99.90
13470;DHT22;6807;48.682;9.032;2022-08-03T06:34:59;22.80;99.90
13470;DHT22;6807;48.682;9.032;2022-08-03T06:37:25;23.20;99.90
13470;DHT22;6807;48.682;9.032;2022-08-03T06:39:53;23.80;99.90
13470;DHT22;6807;48.682;9.032;2022-08-03T06:42:20;24.50;99.90
13470;DHT22;6807;48.682;9.032;2022-08-03T06:44:47;24.70;99.90
13470;DHT22;6807;48.682;9.032;2022-08-03T06:47:15;24.90;99.90
13470;DHT22;6807;48.682;9.032;2022-08-03T06:49:42;24.80;99.90
13470;DHT22;6807;48.682;9.032;2022-08-03T06:52:09;25.20;99.90
13470;DHT22;6807;48.682;9.032;2022-08-03T06:54:36;25.50;99.90
13470;DHT22;6807;48.682;9.032;2022-08-03T06:57:03;25.80;99.90
13470;DHT22;6807;48.682;9.032;2022-08-03T06:59:30;26.30;99.90
13470;DHT22;6807;48.682;9.032;2022-08-03T07:01:57;26.10;99.90
13470;DHT22;6807;48.682;9.032;2022-08-03T07:04:25;26.30;99.90
13470;DHT22;6807;48.682;9.032;2022-08-03T07:06:52;26.70;99.90
13470;DHT22;6807;48.682;9.032;2022-08-03T07:09:19;26.90;99.90
13470;DHT22;6807;48.682;9.032;2022-08-03T07:11:46;27.00;99.90
13470;DHT22;6807;48.682;9.032;2022-08-03T07:14:13;27.20;99.90
13470;DHT22;6807;48.682;9.032;2022-08-03T07:16:40;27.00;99.90
13470;DHT22;6807;48.682;9.032;2022-08-03T07:19:07;27.30;99.90
13470;DHT22;6807;48.682;9.032;2022-08-03T07:21:35;27.60;99.90
13470;DHT22;6807;48.682;9.032;2022-08-03T07:24:02;27.40;99.90
13470;DHT22;6807;48.682;9.032;2022-08-03T07:26:29;28.00;99.90
13470;DHT22;6807;48.682;9.032;2022-08-03T07:28:56;28.30;99.90
13470;DHT22;6807;48.682;9.032;2022-08-03T07:31:25;28.80;99.90
13470;DHT22;6807;48.682;9.032;2022-08-03T07:33:52;29.20;99.90
13470;DHT22;6807;48.682;9.032;2022-08-03T07:36:19;28.60;99.90
13470;DHT22;6807;48.682;9.032;2022-08-03T07:38:47;28.60;99.90
13470;DHT22;6807;48.682;9.032;2022-08-03T07:41:15;28.80;99.90
13470;DHT22;6807;48.682;9.032;2022-08-03T07:43:42;29.30;99.90
13470;DHT22;6807;48.682;9.032;2022-08-03T07:46:09;29.30;99.90
13470;DHT22;6807;48.682;9.032;2022-08-03T07:48:35;29.40;99.90
13470;DHT22;6807;48.682;9.032;2022-08-03T07:51:02;29.50;99.90
13470;DHT22;6807;48.682;9.032;2022-08-03T07:53:30;29.70;99.90
13470;DHT22;6807;48.682;9.032;2022-08-03T07:55:58;29.90;99.90
13470;DHT22;6807;48.682;9.032;2022-08-03T07:58:25;30.10;99.90
13470;DHT22;6807;48.682;9.032;2022-08-03T08:00:52;30.10;99.90
13470;DHT22;6807;48.682;9.032;2022-08-03T08:03:19;30.20;99.90
13470;DHT22;6807;48.682;9.032;2022-08-03T08:05:46;30.20;99.90
13470;DHT22;6807;48.682;9.032;2022-08-03T08:08:13;30.80;99.90
13470;DHT22;6807;48.682;9.032;2022-08-03T08:10:40;30.30;99.90
13470;DHT22;6807;48.682;9.032;2022-08-03T08:13:08;31.20;99.90
13470;DHT22;6807;48.682;9.032;2022-08-03T08:15:35;31.20;99.90
13470;DHT22;6807;48.682;9.032;2022-08-03T08:18:02;31.30;99.90
13470;DHT22;6807;48.682;9.032;2022-08-03T08:20:30;31.30;99.90
13470;DHT22;6807;48.682;9.032;2022-08-03T08:22:59;31.50;99.90
13470;DHT22;6807;48.682;9.032;2022-08-03T08:25:26;31.50;99.90
13470;DHT22;6807;48.682;9.032;2022-08-03T08:27:53;31.80;99.90
13470;DHT22;6807;48.682;9.032;2022-08-03T08:30:22;31.60;99.90
13470;DHT22;6807;48.682;9.032;2022-08-03T08:35:18;31.90;99.90
13470;DHT22;6807;48.682;9.032;2022-08-03T08:37:46;31.90;99.90
13470;DHT22;6807;48.682;9.032;2022-08-03T08:40:13;32.40;99.90
13470;DHT22;6807;48.682;9.032;2022-08-03T08:42:41;32.30;99.90
13470;DHT22;6807;48.682;9.032;2022-08-03T08:45:09;32.50;99.90
13470;DHT22;6807;48.682;9.032;2022-08-03T08:47:39;32.80;99.90
13470;DHT22;6807;48.682;9.032;2022-08-03T08:50:07;32.80;99.90
13470;DHT22;6807;48.682;9.032;2022-08-03T08:52:36;33.40;99.90
13470;DHT22;6807;48.682;9.032;2022-08-03T08:55:07;33.10;99.90
13470;DHT22;6807;48.682;9.032;2022-08-03T08:57:36;33.60;99.90
13470;DHT22;6807;48.682;9.032;2022-08-03T09:00:05;33.30;99.90
13470;DHT22;6807;48.682;9.032;2022-08-03T09:02:33;33.30;99.90
13470;DHT22;6807;48.682;9.032;2022-08-03T09:05:02;33.40;99.90
13470;DHT22;6807;48.682;9.032;2022-08-03T09:07:29;33.80;99.90
13470;DHT22;6807;48.682;9.032;2022-08-03T09:09:56;34.20;99.90
13470;DHT22;6807;48.682;9.032;2022-08-03T09:12:23;34.50;99.90
13470;DHT22;6807;48.682;9.032;2022-08-03T09:14:50;34.90;99.90
13470;DHT22;6807;48.682;9.032;2022-08-03T09:17:17;34.50;99.90
13470;DHT22;6807;48.682;9.032;2022-08-03T09:20:05;33.80;99.90
13470;DHT22;6807;48.682;9.032;2022-08-03T09:22:33;34.50;99.90
13470;DHT22;6807;48.682;9.032;2022-08-03T09:25:03;34.70;99.90
13470;DHT22;6807;48.682;9.032;2022-08-03T09:27:41;34.60;99.90
13470;DHT22;6807;48.682;9.032;2022-08-03T09:30:13;34.80;99.90
13470;DHT22;6807;48.682;9.032;2022-08-03T09:32:40;35.20;99.90
13470;DHT22;6807;48.682;9.032;2022-08-03T09:35:11;35.30;99.90
13470;DHT22;6807;48.682;9.032;2022-08-03T09:37:38;35.50;99.90
13470;DHT22;6807;48.682;9.032;2022-08-03T09:40:06;35.20;99.90
13470;DHT22;6807;48.682;9.032;2022-08-03T09:42:33;35.30;99.90
13470;DHT22;6807;48.682;9.032;2022-08-03T09:45:03;35.10;96.90
13470;DHT22;6807;48.682;9.032;2022-08-03T09:47:32;34.60;1.00
13470;DHT22;6807;48.682;9.032;2022-08-03T09:50:03;35.10;1.00
13470;DHT22;6807;48.682;9.032;2022-08-03T09:52:33;35.70;1.00
13470;DHT22;6807;48.682;9.032;2022-08-03T09:55:01;36.00;1.00
13470;DHT22;6807;48.682;9.032;2022-08-03T09:57:28;36.00;1.00
13470;DHT22;6807;48.682;9.032;2022-08-03T10:00:06;36.20;1.00
13470;DHT22;6807;48.682;9.032;2022-08-03T10:02:35;36.20;1.00
13470;DHT22;6807;48.682;9.032;2022-08-03T10:05:04;36.10;1.00
13470;DHT22;6807;48.682;9.032;2022-08-03T10:07:41;36.20;1.00
13470;DHT22;6807;48.682;9.032;2022-08-03T10:10:08;36.20;1.00
13470;DHT22;6807;48.682;9.032;2022-08-03T10:12:36;37.10;1.00
13470;DHT22;6807;48.682;9.032;2022-08-03T10:15:04;36.60;1.00
13470;DHT22;6807;48.682;9.032;2022-08-03T10:17:31;35.70;1.00
13470;DHT22;6807;48.682;9.032;2022-08-03T10:19:58;35.00;1.00
13470;DHT22;6807;48.682;9.032;2022-08-03T10:22:26;34.70;1.00
13470;DHT22;6807;48.682;9.032;2022-08-03T10:24:58;34.90;1.00
13470;DHT22;6807;48.682;9.032;2022-08-03T10:27:29;35.20;1.00
13470;DHT22;6807;48.682;9.032;2022-08-03T10:30:00;35.10;1.00
13470;DHT22;6807;48.682;9.032;2022-08-03T10:32:30;35.60;1.00
13470;DHT22;6807;48.682;9.032;2022-08-03T10:35:03;36.00;1.00
13470;DHT22;6807;48.682;9.032;2022-08-03T10:37:33;35.40;1.00
13470;DHT22;6807;48.682;9.032;2022-08-03T10:40:06;36.60;1.00
13470;DHT22;6807;48.682;9.032;2022-08-03T10:42:34;37.20;1.00
13470;DHT22;6807;48.682;9.032;2022-08-03T10:45:05;37.20;1.00
13470;DHT22;6807;48.682;9.032;2022-08-03T10:47:33;37.50;99.90
13470;DHT22;6807;48.682;9.032;2022-08-03T10:50:02;36.80;99.90
13470;DHT22;6807;48.682;9.032;2022-08-03T10:57:43;37.10;1.00
13470;DHT22;6807;48.682;9.032;2022-08-03T11:00:11;37.20;99.90
13470;DHT22;6807;48.682;9.032;2022-08-03T11:03:07;38.80;99.90
13470;DHT22;6807;48.682;9.032;2022-08-03T11:05:36;37.50;99.90
13470;DHT22;6807;48.682;9.032;2022-08-03T11:08:36;37.00;99.90
13470;DHT22;6807;48.682;9.032;2022-08-03T11:11:24;36.50;99.90
13470;DHT22;6807;48.682;9.032;2022-08-03T11:13:59;35.90;99.90
13470;DHT22;6807;48.682;9.032;2022-08-03T11:16:27;36.10;99.90
13470;DHT22;6807;48.682;9.032;2022-08-03T11:18:55;37.50;99.90
13470;DHT22;6807;48.682;9.032;2022-08-03T11:21:56;37.70;99.90
13470;DHT22;6807;48.682;9.032;2022-08-03T11:24:57;37.80;99.90
13470;DHT22;6807;48.682;9.032;2022-08-03T11:27:34;37.80;99.90
13470;DHT22;6807;48.682;9.032;2022-08-03T11:30:06;37.80;99.90
13470;DHT22;6807;48.682;9.032;2022-08-03T11:33:06;38.70;99.90
13470;DHT22;6807;48.682;9.032;2022-08-03T11:35:33;38.30;99.90
13470;DHT22;6807;48.682;9.032;2022-08-03T11:38:05;38.20;99.90
13470;DHT22;6807;48.682;9.032;2022-08-03T11:40:43;38.50;99.90
13470;DHT22;6807;48.682;9.032;2022-08-03T11:43:44;37.80;99.90
13470;DHT22;6807;48.682;9.032;2022-08-03T11:46:13;38.10;99.90
13470;DHT22;6807;48.682;9.032;2022-08-03T11:48:46;38.60;99.90
13470;DHT22;6807;48.682;9.032;2022-08-03T11:51:22;39.20;99.90
13470;DHT22;6807;48.682;9.032;2022-08-03T11:53:53;40.00;99.90
13470;DHT22;6807;48.682;9.032;2022-08-03T11:56:20;39.70;99.90
13470;DHT22;6807;48.682;9.032;2022-08-03T11:58:48;37.90;99.90
13470;DHT22;6807;48.682;9.032;2022-08-03T12:01:18;37.40;99.90
13470;DHT22;6807;48.682;9.032;2022-08-03T12:03:46;38.90;99.90
13470;DHT22;6807;48.682;9.032;2022-08-03T12:06:14;39.40;80.60
13470;DHT22;6807;48.682;9.032;2022-08-03T12:08:42;40.00;57.90
13470;DHT22;6807;48.682;9.032;2022-08-03T12:11:11;40.00;99.90
13470;DHT22;6807;48.682;9.032;2022-08-03T12:13:40;39.00;99.90
13470;DHT22;6807;48.682;9.032;2022-08-03T12:26:02;39.30;99.90
13470;DHT22;6807;48.682;9.032;2022-08-03T12:31:00;38.90;99.90
13470;DHT22;6807;48.682;9.032;2022-08-03T12:36:04;39.30;99.90
13470;DHT22;6807;48.682;9.032;2022-08-03T12:41:01;40.50;99.90
13470;DHT22;6807;48.682;9.032;2022-08-03T12:46:10;39.70;1.00
13470;DHT22;6807;48.682;9.032;2022-08-03T14:22:34;38.40;99.90
13470;DHT22;6807;48.682;9.032;2022-08-03T16:20:44;33.40;1.00
13470;DHT22;6807;48.682;9.032;2022-08-03T16:43:21;32.00;1.00
13470;DHT22;6807;48.682;9.032;2022-08-03T17:17:57;31.20;1.00
13470;DHT22;6807;48.682;9.032;2022-08-03T17:25:24;30.90;1.00
13470;DHT22;6807;48.682;9.032;2022-08-03T17:37:42;30.40;1.00
13470;DHT22;6807;48.682;9.032;2022-08-03T17:45:07;30.20;1.00
13470;DHT22;6807;48.682;9.032;2022-08-03T17:52:34;29.90;1.00
13470;DHT22;6807;48.682;9.032;2022-08-03T17:55:07;29.80;1.00
13470;DHT22;6807;48.682;9.032;2022-08-03T17:57:40;29.80;1.00
13470;DHT22;6807;48.682;9.032;2022-08-03T18:00:09;29.70;1.00
13470;DHT22;6807;48.682;9.032;2022-08-03T18:03:03;29.70;1.00
13470;DHT22;6807;48.682;9.032;2022-08-03T18:08:16;29.50;1.00
13470;DHT22;6807;48.682;9.032;2022-08-03T18:13:15;29.40;1.00
13470;DHT22;6807;48.682;9.032;2022-08-03T18:15:51;29.30;1.00
13470;DHT22;6807;48.682;9.032;2022-08-03T18:20:46;29.10;1.00
13470;DHT22;6807;48.682;9.032;2022-08-03T18:28:10;28.80;1.00
13470;DHT22;6807;48.682;9.032;2022-08-03T18:30:41;28.60;99.90
13470;DHT22;6807;48.682;9.032;2022-08-03T18:33:08;28.60;83.90
13470;DHT22;6807;48.682;9.032;2022-08-03T18:35:37;28.50;1.00
13470;DHT22;6807;48.682;9.032;2022-08-03T18:43:01;28.00;1.00
13470;DHT22;6807;48.682;9.032;2022-08-03T18:45:29;27.90;1.00
13470;DHT22;6807;48.682;9.032;2022-08-03T18:48:02;27.80;1.00
13470;DHT22;6807;48.682;9.032;2022-08-03T18:50:34;27.60;1.00
13470;DHT22;6807;48.682;9.032;2022-08-03T18:53:12;27.50;1.00
13470;DHT22;6807;48.682;9.032;2022-08-03T18:55:46;27.30;1.00
13470;DHT22;6807;48.682;9.032;2022-08-03T18:58:18;27.20;1.00
13470;DHT22;6807;48.682;9.032;2022-08-03T19:00:50;27.10;1.00
13470;DHT22;6807;48.682;9.032;2022-08-03T19:03:24;27.00;1.00
13470;DHT22;6807;48.682;9.032;2022-08-03T19:05:57;26.90;1.00
13470;DHT22;6807;48.682;9.032;2022-08-03T19:08:29;26.70;10.70
13470;DHT22;6807;48.682;9.032;2022-08-03T19:11:02;26.50;99.90
13470;DHT22;6807;48.682;9.032;2022-08-03T19:13:36;26.40;99.90
13470;DHT22;6807;48.682;9.032;2022-08-03T19:16:07;26.30;99.90
13470;DHT22;6807;48.682;9.032;2022-08-03T19:18:36;26.10;99.90
13470;DHT22;6807;48.682;9.032;2022-08-03T19:21:05;26.10;99.90
13470;DHT22;6807;48.682;9.032;2022-08-03T19:23:34;26.00;99.90
13470;DHT22;6807;48.682;9.032;2022-08-03T19:26:01;25.90;99.90
13470;DHT22;6807;48.682;9.032;2022-08-03T19:28:29;25.80;99.90
13470;DHT22;6807;48.682;9.032;2022-08-03T19:30:59;25.80;99.90
13470;DHT22;6807;48.682;9.032;2022-08-03T19:33:27;25.70;99.90
13470;DHT22;6807;48.682;9.032;2022-08-03T19:35:57;25.70;99.90
13470;DHT22;6807;48.682;9.032;2022-08-03T19:38:25;25.60;99.90
13470;DHT22;6807;48.682;9.032;2022-08-03T19:40:52;25.60;99.90
13470;DHT22;6807;48.682;9.032;2022-08-03T19:43:25;25.60;99.90
13470;DHT22;6807;48.682;9.032;2022-08-03T19:45:54;25.60;1.00
13470;DHT22;6807;48.682;9.032;2022-08-03T19:48:26;25.50;1.00
13470;DHT22;6807;48.682;9.032;2022-08-03T19:50:56;25.60;1.00
13470;DHT22;6807;48.682;9.032;2022-08-03T19:53:25;25.50;1.00
13470;DHT22;6807;48.682;9.032;2022-08-03T19:55:56;25.40;1.00
13470;DHT22;6807;48.682;9.032;2022-08-03T19:58:23;25.40;1.00
13470;DHT22;6807;48.682;9.032;2022-08-03T20:00:55;25.40;1.00
13470;DHT22;6807;48.682;9.032;2022-08-03T20:03:22;25.40;1.00
13470;DHT22;6807;48.682;9.032;2022-08-03T20:05:52;25.40;1.00
13470;DHT22;6807;48.682;9.032;2022-08-03T20:08:21;25.30;1.00
13470;DHT22;6807;48.682;9.032;2022-08-03T20:10:48;25.30;1.00
13470;DHT22;6807;48.682;9.032;2022-08-03T20:13:16;25.30;1.00
13470;DHT22;6807;48.682;9.032;2022-08-03T20:15:44;25.30;1.00
13470;DHT22;6807;48.682;9.032;2022-08-03T20:18:11;25.40;2.70
13470;DHT22;6807;48.682;9.032;2022-08-03T20:20:38;25.30;1.00
13470;DHT22;6807;48.682;9.032;2022-08-03T20:23:10;25.30;13.60
13470;DHT22;6807;48.682;9.032;2022-08-03T20:25:46;25.20;1.00
13470;DHT22;6807;48.682;9.032;2022-08-03T20:28:19;25.20;46.40
13470;DHT22;6807;48.682;9.032;2022-08-03T20:30:50;25.20;75.00
13470;DHT22;6807;48.682;9.032;2022-08-03T20:33:19;25.10;94.10
13470;DHT22;6807;48.682;9.032;2022-08-03T20:35:47;25.00;1.00
13470;DHT22;6807;48.682;9.032;2022-08-03T20:38:14;24.90;1.00
13470;DHT22;6807;48.682;9.032;2022-08-03T20:40:42;24.80;99.90
13470;DHT22;6807;48.682;9.032;2022-08-03T20:43:09;24.70;1.00
13470;DHT22;6807;48.682;9.032;2022-08-03T20:45:37;24.70;1.00
13470;DHT22;6807;48.682;9.032;2022-08-03T20:48:04;24.50;99.90
13470;DHT22;6807;48.682;9.032;2022-08-03T20:50:34;24.30;99.90
13470;DHT22;6807;48.682;9.032;2022-08-03T20:53:01;24.30;28.70
13470;DHT22;6807;48.682;9.032;2022-08-03T20:55:28;24.10;1.00
13470;DHT22;6807;48.682;9.032;2022-08-03T20:57:57;24.00;36.40
13470;DHT22;6807;48.682;9.032;2022-08-03T21:00:25;23.90;99.90
13470;DHT22;6807;48.682;9.032;2022-08-03T21:02:52;23.80;99.90
13470;DHT22;6807;48.682;9.032;2022-08-03T21:05:19;23.60;99.90
13470;DHT22;6807;48.682;9.032;2022-08-03T21:07:47;23.50;99.90
13470;DHT22;6807;48.682;9.032;2022-08-03T21:10:17;23.50;99.90
13470;DHT22;6807;48.682;9.032;2022-08-03T21:12:49;23.40;99.90
13470;DHT22;6807;48.682;9.032;2022-08-03T21:15:22;23.20;99.90
13470;DHT22;6807;48.682;9.032;2022-08-03T21:17:50;23.20;1.00
13470;DHT22;6807;48.682;9.032;2022-08-03T21:20:20;23.10;1.00
13470;DHT22;6807;48.682;9.032;2022-08-03T21:22:51;22.90;1.00
13470;DHT22;6807;48.682;9.032;2022-08-03T21:25:22;22.90;1.00
13470;DHT22;6807;48.682;9.032;2022-08-03T21:27:50;22.80;1.00
13470;DHT22;6807;48.682;9.032;2022-08-03T21:30:19;22.70;1.00
13470;DHT22;6807;48.682;9.032;2022-08-03T21:32:48;22.60;1.00
13470;DHT22;6807;48.682;9.032;2022-08-03T21:35:15;22.50;1.00
13470;DHT22;6807;48.682;9.032;2022-08-03T21:37:43;22.50;1.00
13470;DHT22;6807;48.682;9.032;2022-08-03T21:40:12;22.30;1.00